createdAt,value
2019-02-17T00:02:01.414Z,34.17
2019-02-17T00:04:28.775Z,36.63
2019-02-17T00:06:55.817Z,31.33
2019-02-17T00:09:22.877Z,32.10
2019-02-17T00:11:50.427Z,36.43
2019-02-17T00:14:17.474Z,30.77
2019-02-17T00:16:44.529Z,30.83
2019-02-17T00:19:13.522Z,33.20
2019-02-17T00:21:40.521Z,34.83
2019-02-17T00:24:07.616Z,31.60
2019-02-17T00:26:34.669Z,29.53
2019-02-17T00:29:01.720Z,34.10
2019-02-17T00:31:28.773Z,27.20
2019-02-17T00:33:55.814Z,30.23
2019-02-17T00:36:22.858Z,28.57
2019-02-17T00:38:49.907Z,26.30
2019-02-17T00:41:16.960Z,28.27
2019-02-17T00:43:44.618Z,28.93
2019-02-17T00:46:11.666Z,27.03
2019-02-17T00:48:38.721Z,27.40
2019-02-17T00:51:06.487Z,33.03
2019-02-17T00:53:33.428Z,41.13
2019-02-17T00:56:00.480Z,37.00
2019-02-17T00:58:27.525Z,31.07
2019-02-17T01:00:56.162Z,26.47
2019-02-17T01:03:23.168Z,25.13
2019-02-17T01:05:50.211Z,28.13
2019-02-17T01:08:17.875Z,30.43
2019-02-17T01:10:44.927Z,26.07
2019-02-17T01:13:11.968Z,24.27
2019-02-17T01:15:39.018Z,33.17
2019-02-17T01:18:06.169Z,35.50
2019-02-17T01:20:33.844Z,44.07
2019-02-17T01:23:00.879Z,42.37
2019-02-17T01:25:27.928Z,39.17
2019-02-17T01:27:54.981Z,27.00
2019-02-17T01:30:23.868Z,24.13
2019-02-17T01:32:50.918Z,30.23
2019-02-17T01:35:18.375Z,25.10
2019-02-17T01:37:45.429Z,22.93
2019-02-17T01:40:12.472Z,24.83
2019-02-17T01:42:40.037Z,25.10
2019-02-17T01:45:07.080Z,27.43
2019-02-17T01:47:34.128Z,22.20
2019-02-17T01:50:01.589Z,28.50
2019-02-17T01:52:28.640Z,22.17
2019-02-17T01:54:55.683Z,25.27
2019-02-17T01:57:22.836Z,23.93
2019-02-17T01:59:49.881Z,21.30
2019-02-17T02:02:16.939Z,24.10
2019-02-17T02:04:44.186Z,21.23
2019-02-17T02:07:11.238Z,21.57
2019-02-17T02:09:38.488Z,20.87
2019-02-17T02:12:05.739Z,23.47
2019-02-17T02:14:32.788Z,16.83
2019-02-17T02:16:59.841Z,20.40
2019-02-17T02:19:27.091Z,21.87
2019-02-17T02:21:54.143Z,27.03
2019-02-17T02:24:21.187Z,20.03
2019-02-17T02:26:48.236Z,27.93
2019-02-17T02:29:15.295Z,25.40
2019-02-17T02:31:42.332Z,19.53
2019-02-17T02:34:09.394Z,28.17
2019-02-17T02:36:36.435Z,23.87
2019-02-17T02:39:03.588Z,26.43
2019-02-17T02:41:34.658Z,23.23
2019-02-17T02:43:57.779Z,27.93
2019-02-17T02:46:24.826Z,21.20
2019-02-17T02:48:53.772Z,27.37
2019-02-17T02:51:20.779Z,24.43
2019-02-17T02:53:47.819Z,27.60
2019-02-17T02:56:14.870Z,27.30
2019-02-17T02:58:41.917Z,24.17
2019-02-17T03:01:08.965Z,24.43
2019-02-17T03:03:36.016Z,23.77
2019-02-17T03:06:03.060Z,26.47
2019-02-17T03:08:30.106Z,22.97
2019-02-17T03:10:57.159Z,27.57
2019-02-17T03:13:24.211Z,23.87
2019-02-17T03:15:51.662Z,25.97
2019-02-17T03:18:19.427Z,23.37
2019-02-17T03:20:46.784Z,24.33
2019-02-17T03:23:13.841Z,19.20
2019-02-17T03:25:40.879Z,22.00
2019-02-17T03:28:07.929Z,24.07
2019-02-17T03:30:34.993Z,24.33
2019-02-17T03:33:02.030Z,24.73
2019-02-17T03:35:29.332Z,25.50
2019-02-17T03:37:56.327Z,18.70
2019-02-17T03:40:23.374Z,22.03
2019-02-17T03:42:50.430Z,18.00
2019-02-17T03:45:19.624Z,24.33
2019-02-17T03:47:46.679Z,19.03
2019-02-17T03:50:14.955Z,20.83
2019-02-17T03:52:42.126Z,23.10
2019-02-17T03:55:09.149Z,17.60
2019-02-17T03:57:36.205Z,29.67
2019-02-17T04:00:03.451Z,18.27
2019-02-17T04:02:30.504Z,21.40
2019-02-17T04:04:57.860Z,23.50
2019-02-17T04:07:24.902Z,24.27
2019-02-17T04:09:51.951Z,21.23
2019-02-17T04:12:19.008Z,25.70
2019-02-17T04:14:46.047Z,18.30
2019-02-17T04:17:15.005Z,27.17
2019-02-17T04:19:42.044Z,22.87
2019-02-17T04:22:09.160Z,22.67
2019-02-17T04:24:36.209Z,21.77
2019-02-17T04:27:03.247Z,14.97
2019-02-17T04:29:30.290Z,16.43
2019-02-17T04:31:57.333Z,20.57
2019-02-17T04:34:24.385Z,17.57
2019-02-17T04:36:51.441Z,20.27
2019-02-17T04:39:18.432Z,19.33
2019-02-17T04:41:45.430Z,16.00
2019-02-17T04:44:12.476Z,18.87
2019-02-17T04:46:41.011Z,20.57
2019-02-17T04:49:08.223Z,18.03
2019-02-17T04:51:35.206Z,16.97
2019-02-17T04:54:02.347Z,19.07
2019-02-17T04:56:29.353Z,16.47
2019-02-17T04:58:56.409Z,16.90
2019-02-17T05:01:23.866Z,19.37
2019-02-17T05:03:50.909Z,19.00
2019-02-17T05:06:18.015Z,16.67
2019-02-17T05:08:45.417Z,19.47
2019-02-17T05:11:12.471Z,19.70
2019-02-17T05:13:39.623Z,16.40
2019-02-17T05:16:06.869Z,19.77
2019-02-17T05:18:33.942Z,21.43
2019-02-17T05:21:00.967Z,20.00
2019-02-17T05:23:28.014Z,18.87
2019-02-17T05:25:55.070Z,24.20
2019-02-17T05:28:22.112Z,21.27
2019-02-17T05:30:53.484Z,20.37
2019-02-17T05:33:19.857Z,24.30
2019-02-17T05:35:47.147Z,21.13
2019-02-17T05:38:14.203Z,21.17
2019-02-17T05:40:41.247Z,22.70
2019-02-17T05:43:08.299Z,23.03
2019-02-17T05:45:35.371Z,25.63
2019-02-17T05:48:02.390Z,17.27
2019-02-17T05:50:29.444Z,10.37
2019-02-17T05:52:56.494Z,14.43
2019-02-17T05:55:23.546Z,18.23
2019-02-17T05:57:50.590Z,22.00
2019-02-17T06:00:19.587Z,16.57
2019-02-17T06:02:48.573Z,17.33
2019-02-17T06:05:15.645Z,17.13
2019-02-17T06:07:42.671Z,19.37
2019-02-17T06:10:09.719Z,21.30
2019-02-17T06:12:36.771Z,14.97
2019-02-17T06:15:03.926Z,16.27
2019-02-17T06:17:30.966Z,18.33
2019-02-17T06:19:58.117Z,11.30
2019-02-17T06:22:25.166Z,17.50
2019-02-17T06:24:52.220Z,16.30
2019-02-17T06:27:19.263Z,18.53
2019-02-17T06:29:46.310Z,24.60
2019-02-17T06:32:13.364Z,16.63
2019-02-17T06:34:40.524Z,20.00
2019-02-17T06:37:07.667Z,14.43
2019-02-17T06:39:34.817Z,15.23
2019-02-17T06:42:01.861Z,16.77
2019-02-17T06:44:28.911Z,16.07
2019-02-17T06:46:59.052Z,25.37
2019-02-17T06:49:26.082Z,14.40
2019-02-17T06:51:57.335Z,16.90
2019-02-17T06:54:24.429Z,15.70
2019-02-17T06:56:53.171Z,29.50
2019-02-17T06:59:20.215Z,18.57
2019-02-17T07:01:47.367Z,14.07
2019-02-17T07:04:14.424Z,12.63
2019-02-17T07:06:42.395Z,13.37
2019-02-17T07:09:09.430Z,13.27
2019-02-17T07:11:36.606Z,15.23
2019-02-17T07:14:03.740Z,14.27
2019-02-17T07:16:32.623Z,11.97
2019-02-17T07:18:59.621Z,13.63
2019-02-17T07:21:27.820Z,15.27
2019-02-17T07:23:54.900Z,16.60
2019-02-17T07:26:21.899Z,14.77
2019-02-17T07:28:49.511Z,15.37
2019-02-17T07:31:16.559Z,16.03
2019-02-17T07:33:46.503Z,13.83
2019-02-17T07:36:13.626Z,17.97
2019-02-17T07:38:40.667Z,11.40
2019-02-17T07:41:07.722Z,10.67
2019-02-17T07:43:34.764Z,13.37
2019-02-17T07:46:01.813Z,15.63
2019-02-17T07:48:28.867Z,12.27
2019-02-17T07:50:56.843Z,7.40
2019-02-17T07:53:22.959Z,13.20
2019-02-17T07:55:50.013Z,8.63
2019-02-17T07:58:17.057Z,10.17
2019-02-17T08:00:44.058Z,8.10
2019-02-17T08:03:11.050Z,11.53
2019-02-17T08:05:38.561Z,13.90
2019-02-17T08:08:06.075Z,14.60
2019-02-17T08:10:33.534Z,9.33
2019-02-17T08:13:00.577Z,6.23
2019-02-17T08:15:27.625Z,10.30
2019-02-17T08:17:54.677Z,11.10
2019-02-17T08:20:21.723Z,17.13
2019-02-17T08:22:48.770Z,9.70
2019-02-17T08:25:21.935Z,10.60
2019-02-17T08:27:42.979Z,14.50
2019-02-17T08:30:12.388Z,7.82
2019-02-17T08:32:40.128Z,8.93
2019-02-17T08:35:07.700Z,9.48
2019-02-17T08:37:34.708Z,25.73
2019-02-17T08:40:01.697Z,39.00
2019-02-17T08:42:29.104Z,21.63
2019-02-17T08:44:56.103Z,11.00
2019-02-17T08:47:23.196Z,15.53
2019-02-17T08:49:50.405Z,8.57
2019-02-17T08:52:17.449Z,9.63
2019-02-17T08:54:44.600Z,8.37
2019-02-17T08:57:11.760Z,8.57
2019-02-17T08:59:38.878Z,10.57
2019-02-17T09:02:06.406Z,8.37
2019-02-17T09:04:33.205Z,11.33
2019-02-17T09:07:00.251Z,10.30
2019-02-17T09:09:28.534Z,9.83
2019-02-17T09:11:55.887Z,11.73
2019-02-17T09:14:22.940Z,11.70
2019-02-17T09:16:52.542Z,10.20
2019-02-17T09:19:19.668Z,7.80
2019-02-17T09:21:46.648Z,8.87
2019-02-17T09:24:13.687Z,9.70
2019-02-17T09:26:42.277Z,10.87
2019-02-17T09:29:09.325Z,10.10
2019-02-17T09:31:36.347Z,11.73
2019-02-17T09:34:03.315Z,12.33
2019-02-17T09:36:30.364Z,13.97
2019-02-17T09:38:57.417Z,7.37
2019-02-17T09:41:24.461Z,8.40
2019-02-17T09:43:51.514Z,6.93
2019-02-17T09:46:18.436Z,7.13
2019-02-17T09:48:45.815Z,9.77
2019-02-17T09:51:12.867Z,8.30
2019-02-17T09:53:39.929Z,10.10
2019-02-17T09:56:07.066Z,9.10
2019-02-17T09:58:34.110Z,8.37
2019-02-17T10:01:01.165Z,8.43
2019-02-17T10:03:28.207Z,10.03
2019-02-17T10:05:55.157Z,9.60
2019-02-17T10:08:22.153Z,10.57
2019-02-17T10:10:49.096Z,10.63
2019-02-17T10:13:16.093Z,13.50
2019-02-17T10:15:43.146Z,12.67
2019-02-17T10:18:12.142Z,10.57
2019-02-17T10:20:39.082Z,16.53
2019-02-17T10:23:06.147Z,14.37
2019-02-17T10:25:34.714Z,15.40
2019-02-17T10:28:03.592Z,13.53
2019-02-17T10:30:30.629Z,13.13
2019-02-17T10:32:57.712Z,15.02
2019-02-17T10:35:24.752Z,14.13
2019-02-17T10:38:01.637Z,15.55
2019-02-17T10:40:28.718Z,14.15
2019-02-17T10:42:55.831Z,14.10
2019-02-17T10:45:24.221Z,14.45
2019-02-17T10:48:00.955Z,15.50
2019-02-17T10:50:28.040Z,21.40
2019-02-17T10:52:55.057Z,16.30
2019-02-17T10:55:22.501Z,19.77
2019-02-17T10:57:49.597Z,22.25
2019-02-17T11:00:17.586Z,23.75
2019-02-17T11:02:47.652Z,18.67
2019-02-17T11:05:15.423Z,17.12
2019-02-17T11:07:42.600Z,19.87
2019-02-17T11:10:09.811Z,19.48
2019-02-17T11:12:36.901Z,21.95
2019-02-17T11:15:03.955Z,20.27
2019-02-17T11:17:30.998Z,19.75
2019-02-17T11:19:58.047Z,18.58
2019-02-17T11:22:25.505Z,19.90
2019-02-17T11:24:52.558Z,21.12
2019-02-17T11:27:19.710Z,21.62
2019-02-17T11:29:46.752Z,20.00
2019-02-17T11:32:13.802Z,23.75
2019-02-17T11:34:40.857Z,25.30
2019-02-17T11:37:09.298Z,23.48
2019-02-17T11:39:36.343Z,30.92
2019-02-17T11:42:03.430Z,21.95
2019-02-17T11:44:31.978Z,23.87
2019-02-17T11:46:57.751Z,22.83
2019-02-17T11:49:24.808Z,27.55
2019-02-17T11:51:52.644Z,27.73
2019-02-17T11:54:19.723Z,23.48
2019-02-17T11:56:46.751Z,32.65
2019-02-17T11:59:13.803Z,26.52
2019-02-17T12:01:40.842Z,25.00
2019-02-17T12:04:09.756Z,26.65
2019-02-17T12:06:36.833Z,31.48
2019-02-17T12:09:04.979Z,25.23
2019-02-17T12:11:33.240Z,27.42
2019-02-17T12:14:00.286Z,29.63
2019-02-17T12:16:36.777Z,31.75
2019-02-17T12:18:54.605Z,26.65
2019-02-17T12:21:26.504Z,28.55
2019-02-17T12:23:59.128Z,26.42
2019-02-17T12:26:31.980Z,29.90
2019-02-17T12:28:59.881Z,27.92
2019-02-17T12:31:27.236Z,25.45
2019-02-17T12:33:56.532Z,28.70
2019-02-17T12:36:25.536Z,29.30
2019-02-17T12:38:54.435Z,30.40
2019-02-17T12:41:21.583Z,25.25
2019-02-17T12:43:49.152Z,26.50
2019-02-17T12:46:16.289Z,30.92
2019-02-17T12:48:44.671Z,26.65
2019-02-17T12:51:11.926Z,27.55
2019-02-17T12:53:38.971Z,26.92
2019-02-17T12:56:06.836Z,29.23
2019-02-17T12:58:33.885Z,25.70
2019-02-17T13:01:02.732Z,22.55
2019-02-17T13:03:31.976Z,28.50
2019-02-17T13:05:59.026Z,24.15
2019-02-17T13:08:26.280Z,22.65
2019-02-17T13:10:53.634Z,24.83
2019-02-17T13:13:20.996Z,22.20
2019-02-17T13:15:48.040Z,24.98
2019-02-17T13:18:15.088Z,24.37
2019-02-17T13:20:42.143Z,24.05
2019-02-17T13:23:09.183Z,25.42
2019-02-17T13:25:38.140Z,22.80
2019-02-17T13:28:03.385Z,26.83
2019-02-17T13:30:30.380Z,22.83
2019-02-17T13:32:57.379Z,21.85
2019-02-17T13:35:24.434Z,24.02
2019-02-17T13:37:51.476Z,20.65
2019-02-17T13:40:18.493Z,20.37
2019-02-17T13:42:47.622Z,19.37
2019-02-17T13:45:14.879Z,26.20
2019-02-17T13:47:41.928Z,26.27
2019-02-17T13:50:08.973Z,24.48
2019-02-17T13:52:35.969Z,22.75
2019-02-17T13:55:03.070Z,20.25
2019-02-17T13:57:30.118Z,23.23
2019-02-17T13:59:57.883Z,34.15
2019-02-17T14:02:24.939Z,52.38
2019-02-17T14:05:03.370Z,29.27
2019-02-17T14:07:41.705Z,22.02
2019-02-17T14:10:17.749Z,26.00
2019-02-17T14:12:54.603Z,25.85
2019-02-17T14:15:22.166Z,22.35
2019-02-17T14:17:51.427Z,24.23
2019-02-17T14:20:23.902Z,22.60
2019-02-17T14:22:51.149Z,27.35
2019-02-17T14:25:20.083Z,31.70
2019-02-17T14:27:47.644Z,28.27
2019-02-17T14:30:17.559Z,21.20
2019-02-17T14:32:45.484Z,25.45
2019-02-17T14:35:14.528Z,23.38
2019-02-17T14:37:41.631Z,21.37
2019-02-17T14:40:10.057Z,21.62
2019-02-17T14:42:37.110Z,22.65
2019-02-17T14:45:04.264Z,24.05
2019-02-17T14:47:33.147Z,19.95
2019-02-17T14:50:00.209Z,19.25
2019-02-17T14:52:27.862Z,21.08
2019-02-17T14:54:57.257Z,21.27
2019-02-17T14:57:27.098Z,23.50
2019-02-17T14:59:56.172Z,26.83
2019-02-17T15:02:23.227Z,21.37
2019-02-17T15:04:50.269Z,23.23
2019-02-17T15:07:18.546Z,22.98
2019-02-17T15:09:45.697Z,23.95
2019-02-17T15:12:12.752Z,24.50
2019-02-17T15:14:39.794Z,27.02
2019-02-17T15:17:06.843Z,21.83
2019-02-17T15:19:33.791Z,22.62
2019-02-17T15:22:00.941Z,23.92
2019-02-17T15:24:27.989Z,22.48
2019-02-17T15:26:55.045Z,23.62
2019-02-17T15:29:22.087Z,23.77
2019-02-17T15:31:49.094Z,20.70
2019-02-17T15:34:18.889Z,20.60
2019-02-17T15:36:46.310Z,20.88
2019-02-17T15:39:13.354Z,22.60
2019-02-17T15:41:41.837Z,22.30
2019-02-17T15:44:08.788Z,23.35
2019-02-17T15:46:35.830Z,23.15
2019-02-17T15:49:03.495Z,27.40
2019-02-17T15:51:30.551Z,26.30
2019-02-17T15:53:57.590Z,30.02
2019-02-17T15:56:25.356Z,29.45
2019-02-17T15:58:52.406Z,31.20
2019-02-17T16:01:20.170Z,33.10
2019-02-17T16:03:47.169Z,37.92
2019-02-17T16:06:14.310Z,37.78
2019-02-17T16:08:41.316Z,38.65
2019-02-17T16:11:11.027Z,38.78
2019-02-17T16:13:40.435Z,40.53
2019-02-17T16:16:09.448Z,38.13
2019-02-17T16:18:36.677Z,40.22
2019-02-17T16:21:03.740Z,38.83
2019-02-17T16:23:32.113Z,39.30
2019-02-17T16:25:59.266Z,41.00
2019-02-17T16:28:26.722Z,38.75
2019-02-17T16:30:53.740Z,42.97
2019-02-17T16:33:46.919Z,41.92
2019-02-17T16:36:13.982Z,40.05
2019-02-17T16:38:41.804Z,41.95
2019-02-17T16:41:09.510Z,38.28
2019-02-17T16:43:36.970Z,42.88
2019-02-17T16:46:05.604Z,47.55
2019-02-17T16:48:33.211Z,44.15
2019-02-17T16:51:02.743Z,41.03
2019-02-17T16:53:31.042Z,44.00
2019-02-17T16:55:58.146Z,42.88
2019-02-17T16:58:27.038Z,45.45
2019-02-17T17:00:54.092Z,43.38
2019-02-17T17:03:23.285Z,47.85
2019-02-17T17:05:50.334Z,47.95
2019-02-17T17:08:17.388Z,43.65
2019-02-17T17:10:44.432Z,41.08
2019-02-17T17:13:11.482Z,45.08
2019-02-17T17:15:38.534Z,44.17
2019-02-17T17:18:05.685Z,43.97
2019-02-17T17:20:32.728Z,49.33
2019-02-17T17:22:59.776Z,50.65
2019-02-17T17:25:26.830Z,51.63
2019-02-17T17:27:53.875Z,52.75
2019-02-17T17:30:20.924Z,48.55
2019-02-17T17:32:48.041Z,50.60
2019-02-17T17:35:15.127Z,46.17
2019-02-17T17:37:42.170Z,50.35
2019-02-17T17:40:09.172Z,51.13
2019-02-17T17:42:36.166Z,53.85
2019-02-17T17:45:03.522Z,58.75
2019-02-17T17:47:30.577Z,97.60
2019-02-17T17:49:59.461Z,66.68
2019-02-17T17:52:26.510Z,108.47
2019-02-17T17:54:53.564Z,88.40
2019-02-17T17:57:21.120Z,84.32
2019-02-17T17:59:52.556Z,90.15
2019-02-17T18:02:19.825Z,66.57
2019-02-17T18:04:48.021Z,60.40
2019-02-17T18:07:14.850Z,55.03
2019-02-17T18:09:41.896Z,54.10
2019-02-17T18:12:08.943Z,50.63
2019-02-17T18:14:38.248Z,46.97
2019-02-17T18:17:06.220Z,49.58
2019-02-17T18:19:33.268Z,52.78
2019-02-17T18:22:00.311Z,54.90
2019-02-17T18:24:27.364Z,60.20
2019-02-17T18:26:55.745Z,53.60
2019-02-17T18:29:22.791Z,58.53
2019-02-17T18:31:50.500Z,64.57
2019-02-17T18:34:17.352Z,55.28
2019-02-17T18:36:45.831Z,60.33
2019-02-17T18:39:12.932Z,59.37
2019-02-17T18:41:39.976Z,55.57
2019-02-17T18:44:11.946Z,43.77
2019-02-17T18:46:39.713Z,43.73
2019-02-17T18:49:08.098Z,48.87
2019-02-17T18:51:36.785Z,48.33
2019-02-17T18:54:03.821Z,42.33
2019-02-17T18:56:30.869Z,43.47
2019-02-17T18:58:57.924Z,39.63
2019-02-17T19:01:24.864Z,46.53
2019-02-17T19:03:53.296Z,51.23
2019-02-17T19:06:21.219Z,49.00
2019-02-17T19:08:48.215Z,51.90
2019-02-17T19:11:15.213Z,54.37
2019-02-17T19:13:42.155Z,60.33
2019-02-17T19:16:09.209Z,59.80
2019-02-17T19:18:36.252Z,64.07
2019-02-17T19:21:03.406Z,63.10
2019-02-17T19:23:30.450Z,59.97
2019-02-17T19:25:57.508Z,54.90
2019-02-17T19:28:24.548Z,65.50
2019-02-17T19:30:51.597Z,61.90
2019-02-17T19:33:18.653Z,76.90
2019-02-17T19:35:45.695Z,102.67
2019-02-17T19:38:12.742Z,98.43
2019-02-17T19:40:39.796Z,87.33
2019-02-17T19:43:06.840Z,78.57
2019-02-17T19:45:33.889Z,82.77
2019-02-17T19:48:00.944Z,102.23
2019-02-17T19:50:28.907Z,76.33
2019-02-17T19:52:55.956Z,75.60
2019-02-17T19:55:23.012Z,57.50
2019-02-17T19:57:50.054Z,59.03
2019-02-17T20:00:17.102Z,52.57
2019-02-17T20:02:47.022Z,60.20
2019-02-17T20:05:14.992Z,57.57
2019-02-17T20:07:42.040Z,60.43
2019-02-17T20:10:09.086Z,66.07
2019-02-17T20:12:36.138Z,57.90
2019-02-17T20:39:52.514Z,52.87
2019-02-17T20:56:09.625Z,55.83
2019-02-17T20:58:36.679Z,48.07
2019-02-17T21:01:03.726Z,51.17
2019-02-17T21:03:38.116Z,47.03
2019-02-17T21:06:12.422Z,45.10
2019-02-17T21:08:34.084Z,53.73
2019-02-17T21:11:01.133Z,52.33
2019-02-17T21:13:36.374Z,49.97
2019-02-17T21:16:03.830Z,55.63
2019-02-17T21:18:36.259Z,58.60
2019-02-17T21:21:05.713Z,57.37
2019-02-17T21:23:32.768Z,43.10
2019-02-17T21:26:00.324Z,54.20
2019-02-17T21:28:27.375Z,67.97
2019-02-17T21:30:54.420Z,70.83
2019-02-17T21:33:22.492Z,70.37
2019-02-17T21:35:51.074Z,72.13
2019-02-17T21:38:18.240Z,62.53
2019-02-17T21:40:45.339Z,60.37
2019-02-17T21:43:12.546Z,69.90
2019-02-17T21:45:39.582Z,61.20
2019-02-17T21:48:06.625Z,62.60
2019-02-17T21:50:33.770Z,68.80
2019-02-17T21:53:00.823Z,45.20
2019-02-17T21:55:28.900Z,47.20
2019-02-17T21:57:55.951Z,44.30
2019-02-17T22:00:24.118Z,46.63
2019-02-17T22:02:51.173Z,47.73
2019-02-17T22:05:18.325Z,34.33
2019-02-17T22:07:45.372Z,41.57
2019-02-17T22:10:14.368Z,47.47
2019-02-17T22:12:41.410Z,48.23
2019-02-17T22:15:08.466Z,51.77
2019-02-17T22:17:35.506Z,63.77
2019-02-17T22:20:02.556Z,62.03
2019-02-17T22:22:29.809Z,60.03
2019-02-17T22:24:56.857Z,63.17
2019-02-17T22:27:26.157Z,55.17
2019-02-17T22:29:53.212Z,56.17
2019-02-17T22:32:20.256Z,72.83
2019-02-17T22:34:47.526Z,64.67
2019-02-17T22:37:14.558Z,63.17
2019-02-17T22:39:42.742Z,57.43
2019-02-17T22:42:09.782Z,65.50
2019-02-17T22:44:36.934Z,60.23
2019-02-17T22:47:05.928Z,56.53
2019-02-17T22:49:32.978Z,61.60
2019-02-17T22:52:00.030Z,69.00
2019-02-17T22:54:27.490Z,62.30
2019-02-17T22:56:54.642Z,62.20
2019-02-17T22:59:21.538Z,57.63
2019-02-17T23:01:48.632Z,59.70
2019-02-17T23:04:15.676Z,66.07
2019-02-17T23:06:42.725Z,51.40
2019-02-17T23:09:09.779Z,60.40
2019-02-17T23:11:36.820Z,56.73
2019-02-17T23:14:04.318Z,56.23
2019-02-17T23:16:31.020Z,50.87
2019-02-17T23:18:58.077Z,46.37
2019-02-17T23:21:25.629Z,55.63
2019-02-17T23:23:52.683Z,47.80
2019-02-17T23:26:19.728Z,34.00
2019-02-17T23:28:46.777Z,46.17
2019-02-17T23:31:15.770Z,48.97
2019-02-17T23:33:42.826Z,53.40
2019-02-17T23:36:09.879Z,49.73
2019-02-17T23:38:36.915Z,47.00
2019-02-17T23:41:03.969Z,40.70
2019-02-17T23:43:31.012Z,38.30
2019-02-17T23:45:58.063Z,37.47
2019-02-17T23:48:25.115Z,44.30
2019-02-17T23:50:52.159Z,41.87
2019-02-17T23:53:19.224Z,39.37
2019-02-17T23:55:47.061Z,39.03
2019-02-17T23:58:14.125Z,49.90
